sensor_id;sensor_type;location;lat;lon;timestamp;pressure;altitude;pressure_sealevel;temperature
86194;BMP180;76841;51.366;7.480;2024-02-26T00:01:47;97865.28;;;7.89
86194;BMP180;76841;51.366;7.480;2024-02-26T00:04:12;97874.28;;;7.88
86194;BMP180;76841;51.366;7.480;2024-02-26T00:06:38;97871.34;;;7.79
86194;BMP180;76841;51.366;7.480;2024-02-26T00:09:06;97871.34;;;7.79
86194;BMP180;76841;51.366;7.480;2024-02-26T00:11:31;97874.34;;;7.74
86194;BMP180;76841;51.366;7.480;2024-02-26T00:13:57;97870.63;;;7.75
86194;BMP180;76841;51.366;7.480;2024-02-26T00:16:23;97864.59;;;7.78
86194;BMP180;76841;51.366;7.480;2024-02-26T00:18:48;97869.84;;;7.81
86194;BMP180;76841;51.366;7.480;2024-02-26T00:21:13;97857.47;;;7.82
86194;BMP180;76841;51.366;7.480;2024-02-26T00:23:39;97857.84;;;7.84
86194;BMP180;76841;51.366;7.480;2024-02-26T00:26:04;97856.75;;;7.81
86194;BMP180;76841;51.366;7.480;2024-02-26T00:28:29;97847.41;;;7.80
86194;BMP180;76841;51.366;7.480;2024-02-26T00:30:54;97851.09;;;7.83
86194;BMP180;76841;51.366;7.480;2024-02-26T00:33:21;97863.75;;;7.95
86194;BMP180;76841;51.366;7.480;2024-02-26T00:35:46;97864.84;;;7.97
86194;BMP180;76841;51.366;7.480;2024-02-26T00:38:11;97869.69;;;7.99
86194;BMP180;76841;51.366;7.480;2024-02-26T00:40:37;97864.75;;;8.04
86194;BMP180;76841;51.366;7.480;2024-02-26T00:43:02;97861.41;;;8.04
86194;BMP180;76841;51.366;7.480;2024-02-26T00:45:27;97856.91;;;8.04
86194;BMP180;76841;51.366;7.480;2024-02-26T00:47:53;97851.44;;;7.92
86194;BMP180;76841;51.366;7.480;2024-02-26T00:50:18;97854.75;;;7.99
86194;BMP180;76841;51.366;7.480;2024-02-26T00:52:43;97845.78;;;7.97
86194;BMP180;76841;51.366;7.480;2024-02-26T00:55:09;97851.34;;;8.02
86194;BMP180;76841;51.366;7.480;2024-02-26T00:57:34;97865.88;;;8.07
86194;BMP180;76841;51.366;7.480;2024-02-26T00:59:59;97857.66;;;8.05
86194;BMP180;76841;51.366;7.480;2024-02-26T01:02:26;97865.88;;;8.07
86194;BMP180;76841;51.366;7.480;2024-02-26T01:04:51;97868.13;;;8.05
86194;BMP180;76841;51.366;7.480;2024-02-26T01:07:16;97853.56;;;8.04
86194;BMP180;76841;51.366;7.480;2024-02-26T01:09:42;97871.91;;;8.04
86194;BMP180;76841;51.366;7.480;2024-02-26T01:12:07;97865.19;;;8.03
86194;BMP180;76841;51.366;7.480;2024-02-26T01:14:33;97853.97;;;7.99
86194;BMP180;76841;51.366;7.480;2024-02-26T01:16:58;97860.28;;;8.05
86194;BMP180;76841;51.366;7.480;2024-02-26T01:19:23;97863.66;;;8.05
86194;BMP180;76841;51.366;7.480;2024-02-26T01:21:49;97864.41;;;8.06
86194;BMP180;76841;51.366;7.480;2024-02-26T01:24:14;97858.41;;;8.05
86194;BMP180;76841;51.366;7.480;2024-02-26T01:26:40;97867.38;;;8.08
86194;BMP180;76841;51.366;7.480;2024-02-26T01:29:06;97868.50;;;8.07
86194;BMP180;76841;51.366;7.480;2024-02-26T01:31:31;97867.38;;;8.04
86194;BMP180;76841;51.366;7.480;2024-02-26T01:33:56;97856.97;;;8.01
86194;BMP180;76841;51.366;7.480;2024-02-26T01:36:21;97867.38;;;8.04
86194;BMP180;76841;51.366;7.480;2024-02-26T01:38:47;97865.94;;;8.00
86194;BMP180;76841;51.366;7.480;2024-02-26T01:41:15;97861.44;;;8.00
86194;BMP180;76841;51.366;7.480;2024-02-26T01:43:40;97856.31;;;7.90
86194;BMP180;76841;51.366;7.480;2024-02-26T01:46:10;97854.06;;;7.92
86194;BMP180;76841;51.366;7.480;2024-02-26T01:48:37;97873.38;;;8.05
86194;BMP180;76841;51.366;7.480;2024-02-26T01:51:02;97861.78;;;8.06
86194;BMP180;76841;51.366;7.480;2024-02-26T01:53:28;97844.31;;;7.92
86194;BMP180;76841;51.366;7.480;2024-02-26T01:55:53;97860.72;;;7.96
86194;BMP180;76841;51.366;7.480;2024-02-26T01:58:19;97862.97;;;8.01
86194;BMP180;76841;51.366;7.480;2024-02-26T02:00:44;97861.84;;;7.99
86194;BMP180;76841;51.366;7.480;2024-02-26T02:03:09;97876.00;;;8.05
86194;BMP180;76841;51.366;7.480;2024-02-26T02:05:36;97866.69;;;8.00
86194;BMP180;76841;51.366;7.480;2024-02-26T02:08:07;97871.19;;;7.96
86194;BMP180;76841;51.366;7.480;2024-02-26T02:10:32;97860.78;;;7.93
86194;BMP180;76841;51.366;7.480;2024-02-26T02:12:57;97870.44;;;7.96
86194;BMP180;76841;51.366;7.480;2024-02-26T02:15:23;97872.31;;;7.99
86194;BMP180;76841;51.366;7.480;2024-02-26T02:17:48;97871.94;;;8.00
86194;BMP180;76841;51.366;7.480;2024-02-26T02:20:17;97874.22;;;7.95
86194;BMP180;76841;51.366;7.480;2024-02-26T02:22:46;97879.03;;;8.00
86194;BMP180;76841;51.366;7.480;2024-02-26T02:25:11;97861.91;;;7.92
86194;BMP180;76841;51.366;7.480;2024-02-26T02:27:36;97857.34;;;7.96
86194;BMP180;76841;51.366;7.480;2024-02-26T02:30:02;97871.16;;;8.00
86194;BMP180;76841;51.366;7.480;2024-02-26T02:32:28;97879.41;;;8.02
86194;BMP180;76841;51.366;7.480;2024-02-26T02:34:54;97863.41;;;7.93
86194;BMP180;76841;51.366;7.480;2024-02-26T02:37:20;97871.56;;;7.98
86194;BMP180;76841;51.366;7.480;2024-02-26T02:39:45;97875.66;;;8.03
86194;BMP180;76841;51.366;7.480;2024-02-26T02:42:10;97878.97;;;8.07
86194;BMP180;76841;51.366;7.480;2024-02-26T02:44:36;97888.31;;;8.08
86194;BMP180;76841;51.366;7.480;2024-02-26T02:47:01;97871.16;;;8.00
86194;BMP180;76841;51.366;7.480;2024-02-26T02:49:26;97877.84;;;8.04
86194;BMP180;76841;51.366;7.480;2024-02-26T02:51:51;97894.69;;;8.07
86194;BMP180;76841;51.366;7.480;2024-02-26T02:54:19;97888.31;;;8.08
86194;BMP180;76841;51.366;7.480;2024-02-26T02:56:44;97893.56;;;8.04
86194;BMP180;76841;51.366;7.480;2024-02-26T02:59:10;97892.06;;;8.07
86194;BMP180;76841;51.366;7.480;2024-02-26T03:01:35;97894.31;;;8.08
86194;BMP180;76841;51.366;7.480;2024-02-26T03:04:00;97895.78;;;8.13
86194;BMP180;76841;51.366;7.480;2024-02-26T03:06:25;97895.78;;;8.13
86194;BMP180;76841;51.366;7.480;2024-02-26T03:08:52;97878.22;;;8.10
86194;BMP180;76841;51.366;7.480;2024-02-26T03:11:18;97862.59;;;7.99
86194;BMP180;76841;51.366;7.480;2024-02-26T03:13:44;97875.94;;;8.12
86194;BMP180;76841;51.366;7.480;2024-02-26T03:16:09;97871.09;;;8.07
86194;BMP180;76841;51.366;7.480;2024-02-26T03:18:34;97881.59;;;8.07
86194;BMP180;76841;51.366;7.480;2024-02-26T03:21:00;97879.31;;;8.09
86194;BMP180;76841;51.366;7.480;2024-02-26T03:23:25;97890.19;;;8.11
86194;BMP180;76841;51.366;7.480;2024-02-26T03:25:51;97891.66;;;8.12
86194;BMP180;76841;51.366;7.480;2024-02-26T03:28:16;97900.28;;;8.12
86194;BMP180;76841;51.366;7.480;2024-02-26T03:30:41;97885.72;;;8.08
86194;BMP180;76841;51.366;7.480;2024-02-26T03:33:06;97881.59;;;8.07
86194;BMP180;76841;51.366;7.480;2024-02-26T03:35:32;97878.97;;;8.07
86194;BMP180;76841;51.366;7.480;2024-02-26T03:37:57;97872.97;;;8.10
86194;BMP180;76841;51.366;7.480;2024-02-26T03:40:22;97857.72;;;7.98
86194;BMP180;76841;51.366;7.480;2024-02-26T03:42:48;97862.97;;;7.98
86194;BMP180;76841;51.366;7.480;2024-02-26T03:45:13;97871.09;;;8.07
86194;BMP180;76841;51.366;7.480;2024-02-26T03:47:38;97855.16;;;7.91
86194;BMP180;76841;51.366;7.480;2024-02-26T03:50:07;97874.19;;;8.02
86194;BMP180;76841;51.366;7.480;2024-02-26T03:52:33;97868.94;;;7.98
86194;BMP180;76841;51.366;7.480;2024-02-26T03:54:59;97859.31;;;7.88
86194;BMP180;76841;51.366;7.480;2024-02-26T03:57:24;97872.00;;;7.90
86194;BMP180;76841;51.366;7.480;2024-02-26T03:59:49;97862.31;;;7.83
86194;BMP180;76841;51.366;7.480;2024-02-26T04:02:16;97875.41;;;7.83
86194;BMP180;76841;51.366;7.480;2024-02-26T04:04:41;97877.28;;;7.83
86194;BMP180;76841;51.366;7.480;2024-02-26T04:07:06;97857.94;;;7.66
86194;BMP180;76841;51.366;7.480;2024-02-26T04:09:31;97882.19;;;7.81
86194;BMP180;76841;51.366;7.480;2024-02-26T04:11:57;97887.81;;;7.79
86194;BMP180;76841;51.366;7.480;2024-02-26T04:14:22;97875.84;;;7.78
86194;BMP180;76841;51.366;7.480;2024-02-26T04:16:47;97858.03;;;7.59
86194;BMP180;76841;51.366;7.480;2024-02-26T04:19:16;97882.56;;;7.76
86194;BMP180;76841;51.366;7.480;2024-02-26T04:21:42;97878.13;;;7.69
86194;BMP180;76841;51.366;7.480;2024-02-26T04:24:07;97884.13;;;7.70
86194;BMP180;76841;51.366;7.480;2024-02-26T04:26:32;97888.22;;;7.71
86194;BMP180;76841;51.366;7.480;2024-02-26T04:28:57;97874.03;;;7.65
86194;BMP180;76841;51.366;7.480;2024-02-26T04:31:23;97892.31;;;7.72
86194;BMP180;76841;51.366;7.480;2024-02-26T04:33:48;97889.38;;;7.70
86194;BMP180;76841;51.366;7.480;2024-02-26T04:36:14;97896.44;;;7.73
86194;BMP180;76841;51.366;7.480;2024-02-26T04:38:45;97891.56;;;7.75
86194;BMP180;76841;51.366;7.480;2024-02-26T04:41:11;97898.63;;;7.78
86194;BMP180;76841;51.366;7.480;2024-02-26T04:43:37;97902.78;;;7.72
86194;BMP180;76841;51.366;7.480;2024-02-26T04:46:07;97902.41;;;7.77
86194;BMP180;76841;51.366;7.480;2024-02-26T04:48:33;97897.53;;;7.75
86194;BMP180;76841;51.366;7.480;2024-02-26T04:50:59;97915.47;;;7.80
86194;BMP180;76841;51.366;7.480;2024-02-26T04:53:24;97917.69;;;7.82
86194;BMP180;76841;51.366;7.480;2024-02-26T04:55:49;97918.84;;;7.81
86194;BMP180;76841;51.366;7.480;2024-02-26T04:58:14;97926.31;;;7.79
86194;BMP180;76841;51.366;7.480;2024-02-26T05:00:40;97922.97;;;7.75
86194;BMP180;76841;51.366;7.480;2024-02-26T05:03:05;97923.38;;;7.70
86194;BMP180;76841;51.366;7.480;2024-02-26T05:05:30;97928.25;;;7.68
86194;BMP180;76841;51.366;7.480;2024-02-26T05:07:55;97940.94;;;7.73
86194;BMP180;76841;51.366;7.480;2024-02-26T05:10:21;97923.41;;;7.63
86194;BMP180;76841;51.366;7.480;2024-02-26T05:12:46;97930.50;;;7.62
86194;BMP180;76841;51.366;7.480;2024-02-26T05:15:11;97918.97;;;7.53
86194;BMP180;76841;51.366;7.480;2024-02-26T05:17:40;97936.50;;;7.63
86194;BMP180;76841;51.366;7.480;2024-02-26T05:20:06;97923.44;;;7.56
86194;BMP180;76841;51.366;7.480;2024-02-26T05:22:33;97927.56;;;7.53
86194;BMP180;76841;51.366;7.480;2024-02-26T05:24:58;97935.78;;;7.59
86194;BMP180;76841;51.366;7.480;2024-02-26T05:27:23;97925.38;;;7.44
86194;BMP180;76841;51.366;7.480;2024-02-26T05:29:49;97946.25;;;7.52
86194;BMP180;76841;51.366;7.480;2024-02-26T05:32:14;97941.06;;;7.44
86194;BMP180;76841;51.366;7.480;2024-02-26T05:34:39;97937.75;;;7.37
86194;BMP180;76841;51.366;7.480;2024-02-26T05:37:06;97934.72;;;7.38
86194;BMP180;76841;51.366;7.480;2024-02-26T05:39:32;97935.88;;;7.30
86194;BMP180;76841;51.366;7.480;2024-02-26T05:41:57;97947.81;;;7.38
86194;BMP180;76841;51.366;7.480;2024-02-26T05:44:26;97940.38;;;7.33
86194;BMP180;76841;51.366;7.480;2024-02-26T05:46:51;97937.75;;;7.33
86194;BMP180;76841;51.366;7.480;2024-02-26T05:49:17;97956.03;;;7.40
86194;BMP180;76841;51.366;7.480;2024-02-26T05:51:42;97937.38;;;7.35
86194;BMP180;76841;51.366;7.480;2024-02-26T05:54:07;97961.25;;;7.40
86194;BMP180;76841;51.366;7.480;2024-02-26T05:56:33;97947.84;;;7.35
86194;BMP180;76841;51.366;7.480;2024-02-26T05:58:58;97941.13;;;7.30
86194;BMP180;76841;51.366;7.480;2024-02-26T06:01:24;97950.84;;;7.33
86194;BMP180;76841;51.366;7.480;2024-02-26T06:03:50;97952.31;;;7.31
86194;BMP180;76841;51.366;7.480;2024-02-26T06:06:16;97938.16;;;7.21
86194;BMP180;76841;51.366;7.480;2024-02-26T06:08:41;97958.69;;;7.26
86194;BMP180;76841;51.366;7.480;2024-02-26T06:11:07;97960.59;;;7.22
86194;BMP180;76841;51.366;7.480;2024-02-26T06:13:33;97947.88;;;7.21
86194;BMP180;76841;51.366;7.480;2024-02-26T06:15:58;97958.34;;;7.17
86194;BMP180;76841;51.366;7.480;2024-02-26T06:18:23;97974.03;;;7.24
86194;BMP180;76841;51.366;7.480;2024-02-26T06:20:49;97980.75;;;7.22
86194;BMP180;76841;51.366;7.480;2024-02-26T06:23:14;97972.59;;;7.09
86194;BMP180;76841;51.366;7.480;2024-02-26T06:25:39;97975.94;;;7.13
86194;BMP180;76841;51.366;7.480;2024-02-26T06:28:04;97978.91;;;7.15
86194;BMP180;76841;51.366;7.480;2024-02-26T06:30:30;97970.31;;;7.08
86194;BMP180;76841;51.366;7.480;2024-02-26T06:32:55;97989.00;;;7.13
86194;BMP180;76841;51.366;7.480;2024-02-26T06:35:20;97986.41;;;7.13
86194;BMP180;76841;51.366;7.480;2024-02-26T06:37:46;97984.53;;;7.07
86194;BMP180;76841;51.366;7.480;2024-02-26T06:40:11;97986.03;;;7.04
86194;BMP180;76841;51.366;7.480;2024-02-26T06:42:36;97996.47;;;7.04
86194;BMP180;76841;51.366;7.480;2024-02-26T06:45:02;98000.22;;;7.03
86194;BMP180;76841;51.366;7.480;2024-02-26T06:47:29;97989.78;;;7.00
86194;BMP180;76841;51.366;7.480;2024-02-26T06:49:54;98006.22;;;7.00
86194;BMP180;76841;51.366;7.480;2024-02-26T06:52:23;97994.63;;;6.94
86194;BMP180;76841;51.366;7.480;2024-02-26T06:54:48;98006.22;;;7.00
86194;BMP180;76841;51.366;7.480;2024-02-26T06:57:16;98006.94;;;7.04
86194;BMP180;76841;51.366;7.480;2024-02-26T06:59:41;97997.25;;;7.01
86194;BMP180;76841;51.366;7.480;2024-02-26T07:02:10;98006.19;;;7.04
86194;BMP180;76841;51.366;7.480;2024-02-26T07:04:36;98018.91;;;7.09
86194;BMP180;76841;51.366;7.480;2024-02-26T07:07:02;98007.69;;;7.08
86194;BMP180;76841;51.366;7.480;2024-02-26T07:09:27;98020.41;;;7.13
86194;BMP180;76841;51.366;7.480;2024-02-26T07:11:52;98015.91;;;7.14
86194;BMP180;76841;51.366;7.480;2024-02-26T07:14:18;98018.50;;;7.17
86194;BMP180;76841;51.366;7.480;2024-02-26T07:16:43;98006.94;;;7.18
86194;BMP180;76841;51.366;7.480;2024-02-26T07:19:08;98032.28;;;7.28
86194;BMP180;76841;51.366;7.480;2024-02-26T07:21:33;98033.81;;;7.29
86194;BMP180;76841;51.366;7.480;2024-02-26T07:23:59;98031.94;;;7.33
86194;BMP180;76841;51.366;7.480;2024-02-26T07:26:24;98023.34;;;7.29
86194;BMP180;76841;51.366;7.480;2024-02-26T07:28:51;98028.56;;;7.33
86194;BMP180;76841;51.366;7.480;2024-02-26T07:31:17;98038.97;;;7.43
86194;BMP180;76841;51.366;7.480;2024-02-26T07:33:42;98034.53;;;7.37
86194;BMP180;76841;51.366;7.480;2024-02-26T07:36:08;98037.13;;;7.40
86194;BMP180;76841;51.366;7.480;2024-02-26T07:38:33;98038.97;;;7.43
86194;BMP180;76841;51.366;7.480;2024-02-26T07:40:58;98040.88;;;7.46
86194;BMP180;76841;51.366;7.480;2024-02-26T07:43:23;98034.88;;;7.46
86194;BMP180;76841;51.366;7.480;2024-02-26T07:45:49;98044.19;;;7.50
86194;BMP180;76841;51.366;7.480;2024-02-26T07:48:14;98037.84;;;7.52
86194;BMP180;76841;51.366;7.480;2024-02-26T07:50:39;98051.66;;;7.56
86194;BMP180;76841;51.366;7.480;2024-02-26T07:53:05;98054.28;;;7.56
86194;BMP180;76841;51.366;7.480;2024-02-26T07:55:31;98050.19;;;7.55
86194;BMP180;76841;51.366;7.480;2024-02-26T07:57:56;98056.88;;;7.63
86194;BMP180;76841;51.366;7.480;2024-02-26T08:00:21;98062.47;;;7.65
86194;BMP180;76841;51.366;7.480;2024-02-26T08:02:47;98057.63;;;7.60
86194;BMP180;76841;51.366;7.480;2024-02-26T08:05:12;98055.38;;;7.62
86194;BMP180;76841;51.366;7.480;2024-02-26T08:07:37;98059.13;;;7.61
86194;BMP180;76841;51.366;7.480;2024-02-26T08:10:03;98062.88;;;7.63
86194;BMP180;76841;51.366;7.480;2024-02-26T08:12:29;98065.84;;;7.69
86194;BMP180;76841;51.366;7.480;2024-02-26T08:14:54;98068.84;;;7.67
86194;BMP180;76841;51.366;7.480;2024-02-26T08:17:19;98064.34;;;7.61
86194;BMP180;76841;51.366;7.480;2024-02-26T08:19:44;98075.19;;;7.70
86194;BMP180;76841;51.366;7.480;2024-02-26T08:22:10;98074.81;;;7.71
86194;BMP180;76841;51.366;7.480;2024-02-26T08:24:41;98078.91;;;7.72
86194;BMP180;76841;51.366;7.480;2024-02-26T08:27:06;98080.44;;;7.70
86194;BMP180;76841;51.366;7.480;2024-02-26T08:29:31;98066.59;;;7.66
86194;BMP180;76841;51.366;7.480;2024-02-26T08:31:57;98069.19;;;7.69
86194;BMP180;76841;51.366;7.480;2024-02-26T08:34:22;98089.72;;;7.78
86194;BMP180;76841;51.366;7.480;2024-02-26T08:36:47;98071.44;;;7.71
86194;BMP180;76841;51.366;7.480;2024-02-26T08:39:14;98087.50;;;7.76
86194;BMP180;76841;51.366;7.480;2024-02-26T08:41:39;98085.25;;;7.82
86194;BMP180;76841;51.366;7.480;2024-02-26T08:44:04;98074.03;;;7.78
86194;BMP180;76841;51.366;7.480;2024-02-26T08:46:30;98086.66;;;7.93
86194;BMP180;76841;51.366;7.480;2024-02-26T08:48:56;98080.72;;;7.93
86194;BMP180;76841;51.366;7.480;2024-02-26T08:51:21;98085.91;;;8.00
86194;BMP180;76841;51.366;7.480;2024-02-26T08:53:46;98075.06;;;7.98
86194;BMP180;76841;51.366;7.480;2024-02-26T08:56:11;98078.44;;;7.98
86194;BMP180;76841;51.366;7.480;2024-02-26T08:58:41;98072.88;;;7.93
86194;BMP180;76841;51.366;7.480;2024-02-26T09:01:07;98083.66;;;7.98
86194;BMP180;76841;51.366;7.480;2024-02-26T09:03:32;98084.06;;;7.97
86194;BMP180;76841;51.366;7.480;2024-02-26T09:05:57;98084.47;;;7.92
86194;BMP180;76841;51.366;7.480;2024-02-26T09:08:22;98099.38;;;7.98
86194;BMP180;76841;51.366;7.480;2024-02-26T09:10:49;98096.38;;;8.00
86194;BMP180;76841;51.366;7.480;2024-02-26T09:13:14;98097.50;;;8.02
86194;BMP180;76841;51.366;7.480;2024-02-26T09:15:40;98106.81;;;8.07
86194;BMP180;76841;51.366;7.480;2024-02-26T09:18:05;98109.81;;;8.09
86194;BMP180;76841;51.366;7.480;2024-02-26T09:20:30;98114.25;;;8.19
86194;BMP180;76841;51.366;7.480;2024-02-26T09:22:55;98107.19;;;8.09
86194;BMP180;76841;51.366;7.480;2024-02-26T09:25:21;98108.69;;;8.10
86194;BMP180;76841;51.366;7.480;2024-02-26T09:27:47;98115.81;;;8.13
86194;BMP180;76841;51.366;7.480;2024-02-26T09:30:13;98115.81;;;8.13
86194;BMP180;76841;51.366;7.480;2024-02-26T09:32:39;98124.00;;;8.15
86194;BMP180;76841;51.366;7.480;2024-02-26T09:35:05;98125.13;;;8.14
86194;BMP180;76841;51.366;7.480;2024-02-26T09:37:31;98122.50;;;8.14
86194;BMP180;76841;51.366;7.480;2024-02-26T09:39:56;98122.50;;;8.14
86194;BMP180;76841;51.366;7.480;2024-02-26T09:42:25;98129.59;;;8.17
86194;BMP180;76841;51.366;7.480;2024-02-26T09:44:53;98121.03;;;8.13
86194;BMP180;76841;51.366;7.480;2024-02-26T09:47:19;98121.75;;;8.17
86194;BMP180;76841;51.366;7.480;2024-02-26T09:49:46;98133.66;;;8.25
86194;BMP180;76841;51.366;7.480;2024-02-26T09:52:14;98141.16;;;8.26
86194;BMP180;76841;51.366;7.480;2024-02-26T09:54:40;98138.91;;;8.28
86194;BMP180;76841;51.366;7.480;2024-02-26T09:57:08;98153.88;;;8.31
86194;BMP180;76841;51.366;7.480;2024-02-26T09:59:39;98160.25;;;8.30
86194;BMP180;76841;51.366;7.480;2024-02-26T10:02:08;98154.66;;;8.18
86194;BMP180;76841;51.366;7.480;2024-02-26T10:04:34;98154.31;;;8.16
86194;BMP180;76841;51.366;7.480;2024-02-26T10:07:00;98167.38;;;8.23
86194;BMP180;76841;51.366;7.480;2024-02-26T10:09:26;98147.25;;;8.13
86194;BMP180;76841;51.366;7.480;2024-02-26T10:11:51;98163.66;;;8.24
86194;BMP180;76841;51.366;7.480;2024-02-26T10:14:17;98170.34;;;8.28
86194;BMP180;76841;51.366;7.480;2024-02-26T10:16:42;98173.72;;;8.29
86194;BMP180;76841;51.366;7.480;2024-02-26T10:19:07;98180.81;;;8.32
86194;BMP180;76841;51.366;7.480;2024-02-26T10:21:33;98171.84;;;8.26
86194;BMP180;76841;51.366;7.480;2024-02-26T10:23:58;98172.63;;;8.26
86194;BMP180;76841;51.366;7.480;2024-02-26T10:26:23;98183.03;;;8.37
86194;BMP180;76841;51.366;7.480;2024-02-26T10:28:49;98181.94;;;8.38
86194;BMP180;76841;51.366;7.480;2024-02-26T10:31:14;98175.94;;;8.34
86194;BMP180;76841;51.366;7.480;2024-02-26T10:33:42;98190.53;;;8.42
86194;BMP180;76841;51.366;7.480;2024-02-26T10:36:08;98186.03;;;8.42
86194;BMP180;76841;51.366;7.480;2024-02-26T10:38:37;98184.44;;;8.59
86194;BMP180;76841;51.366;7.480;2024-02-26T10:41:03;98193.75;;;8.67
86194;BMP180;76841;51.366;7.480;2024-02-26T10:43:29;98178.41;;;8.69
86194;BMP180;76841;51.366;7.480;2024-02-26T10:45:55;98185.06;;;8.77
86194;BMP180;76841;51.366;7.480;2024-02-26T10:48:21;98195.84;;;8.93
86194;BMP180;76841;51.366;7.480;2024-02-26T10:50:47;98184.22;;;8.94
86194;BMP180;76841;51.366;7.480;2024-02-26T10:53:16;98202.84;;;9.10
86194;BMP180;76841;51.366;7.480;2024-02-26T10:55:45;98188.59;;;9.11
86194;BMP180;76841;51.366;7.480;2024-02-26T10:58:12;98197.53;;;9.17
86194;BMP180;76841;51.366;7.480;2024-02-26T11:00:38;98199.34;;;9.27
86194;BMP180;76841;51.366;7.480;2024-02-26T11:03:04;98208.66;;;9.35
86194;BMP180;76841;51.366;7.480;2024-02-26T11:05:31;98208.34;;;9.26
86194;BMP180;76841;51.366;7.480;2024-02-26T11:07:58;98205.00;;;9.22
86194;BMP180;76841;51.366;7.480;2024-02-26T11:10:25;98222.59;;;9.22
86194;BMP180;76841;51.366;7.480;2024-02-26T11:12:52;98220.03;;;9.18
86194;BMP180;76841;51.366;7.480;2024-02-26T11:15:19;98211.03;;;9.19
86194;BMP180;76841;51.366;7.480;2024-02-26T11:17:46;98212.41;;;9.31
86194;BMP180;76841;51.366;7.480;2024-02-26T11:20:11;98215.41;;;9.36
86194;BMP180;76841;51.366;7.480;2024-02-26T11:22:38;98221.34;;;9.44
86194;BMP180;76841;51.366;7.480;2024-02-26T11:25:04;98231.75;;;9.55
86194;BMP180;76841;51.366;7.480;2024-02-26T11:27:37;98217.84;;;9.58
86194;BMP180;76841;51.366;7.480;2024-02-26T11:30:04;98221.91;;;9.66
86194;BMP180;76841;51.366;7.480;2024-02-26T11:32:31;98227.50;;;9.68
86194;BMP180;76841;51.366;7.480;2024-02-26T11:34:58;98219.63;;;9.68
86194;BMP180;76841;51.366;7.480;2024-02-26T11:37:23;98228.50;;;9.81
86194;BMP180;76841;51.366;7.480;2024-02-26T11:39:51;98226.19;;;9.86
86194;BMP180;76841;51.366;7.480;2024-02-26T11:42:17;98233.66;;;9.91
86194;BMP180;76841;51.366;7.480;2024-02-26T11:44:43;98225.31;;;9.96
86194;BMP180;76841;51.366;7.480;2024-02-26T11:47:22;98226.44;;;9.99
86194;BMP180;76841;51.366;7.480;2024-02-26T11:49:48;98231.19;;;10.11
86194;BMP180;76841;51.366;7.480;2024-02-26T11:52:14;98240.06;;;10.24
86194;BMP180;76841;51.366;7.480;2024-02-26T11:54:50;98246.66;;;10.35
86194;BMP180;76841;51.366;7.480;2024-02-26T11:57:37;98242.72;;;10.50
86194;BMP180;76841;51.366;7.480;2024-02-26T12:02:47;98243.78;;;10.83
86194;BMP180;76841;51.366;7.480;2024-02-26T12:05:20;98248.28;;;10.86
86194;BMP180;76841;51.366;7.480;2024-02-26T12:07:47;98246.56;;;10.99
86194;BMP180;76841;51.366;7.480;2024-02-26T12:10:15;98258.16;;;11.05
86194;BMP180;76841;51.366;7.480;2024-02-26T12:12:41;98257.84;;;11.00
86194;BMP180;76841;51.366;7.480;2024-02-26T12:15:08;98253.41;;;10.93
86194;BMP180;76841;51.366;7.480;2024-02-26T12:17:34;98243.78;;;10.83
86194;BMP180;76841;51.366;7.480;2024-02-26T12:20:11;98246.09;;;10.81
86194;BMP180;76841;51.366;7.480;2024-02-26T12:22:39;98253.25;;;10.81
86194;BMP180;76841;51.366;7.480;2024-02-26T12:25:06;98246.97;;;10.71
86194;BMP180;76841;51.366;7.480;2024-02-26T12:27:31;98254.50;;;10.69
86194;BMP180;76841;51.366;7.480;2024-02-26T12:29:56;98252.28;;;10.68
86194;BMP180;76841;51.366;7.480;2024-02-26T12:32:23;98251.28;;;10.58
86194;BMP180;76841;51.366;7.480;2024-02-26T12:34:48;98253.13;;;10.61
86194;BMP180;76841;51.366;7.480;2024-02-26T12:37:14;98241.19;;;10.53
86194;BMP180;76841;51.366;7.480;2024-02-26T12:39:40;98247.94;;;10.54
86194;BMP180;76841;51.366;7.480;2024-02-26T12:42:06;98240.06;;;10.50
86194;BMP180;76841;51.366;7.480;2024-02-26T12:44:31;98235.56;;;10.51
86194;BMP180;76841;51.366;7.480;2024-02-26T12:47:00;98235.56;;;10.51
86194;BMP180;76841;51.366;7.480;2024-02-26T12:49:28;98258.38;;;10.61
86194;BMP180;76841;51.366;7.480;2024-02-26T12:51:53;98262.84;;;10.64
86194;BMP180;76841;51.366;7.480;2024-02-26T12:54:18;98265.81;;;10.66
86194;BMP180;76841;51.366;7.480;2024-02-26T12:56:44;98269.53;;;10.69
86194;BMP180;76841;51.366;7.480;2024-02-26T12:59:10;98271.88;;;10.63
86194;BMP180;76841;51.366;7.480;2024-02-26T13:01:35;98274.53;;;10.63
86194;BMP180;76841;51.366;7.480;2024-02-26T13:04:01;98279.50;;;10.54
86194;BMP180;76841;51.366;7.480;2024-02-26T13:06:31;98282.50;;;10.56
86194;BMP180;76841;51.366;7.480;2024-02-26T13:08:57;98293.59;;;10.67
86194;BMP180;76841;51.366;7.480;2024-02-26T13:11:27;98295.91;;;10.65
86194;BMP180;76841;51.366;7.480;2024-02-26T13:13:54;98298.94;;;10.64
86194;BMP180;76841;51.366;7.480;2024-02-26T13:16:19;98306.28;;;10.76
86194;BMP180;76841;51.366;7.480;2024-02-26T13:18:44;98310.28;;;10.87
86194;BMP180;76841;51.366;7.480;2024-02-26T13:21:12;98311.38;;;10.90
86194;BMP180;76841;51.366;7.480;2024-02-26T13:23:39;98300.44;;;10.91
86194;BMP180;76841;51.366;7.480;2024-02-26T13:26:04;98320.25;;;10.99
86194;BMP180;76841;51.366;7.480;2024-02-26T13:28:30;98315.00;;;10.99
86194;BMP180;76841;51.366;7.480;2024-02-26T13:30:56;98325.19;;;10.97
86194;BMP180;76841;51.366;7.480;2024-02-26T13:33:22;98329.38;;;10.91
86194;BMP180;76841;51.366;7.480;2024-02-26T13:35:48;98334.03;;;10.80
86194;BMP180;76841;51.366;7.480;2024-02-26T13:38:13;98326.75;;;10.61
86194;BMP180;76841;51.366;7.480;2024-02-26T13:40:39;98335.38;;;10.61
86194;BMP180;76841;51.366;7.480;2024-02-26T13:43:04;98335.09;;;10.56
86194;BMP180;76841;51.366;7.480;2024-02-26T13:45:30;98328.41;;;10.48
86194;BMP180;76841;51.366;7.480;2024-02-26T13:48:01;98347.84;;;10.57
86194;BMP180;76841;51.366;7.480;2024-02-26T13:50:28;98349.38;;;10.55
86194;BMP180;76841;51.366;7.480;2024-02-26T13:52:53;98344.16;;;10.51
86194;BMP180;76841;51.366;7.480;2024-02-26T13:55:20;98348.91;;;10.64
86194;BMP180;76841;51.366;7.480;2024-02-26T13:57:47;98333.50;;;10.62
86194;BMP180;76841;51.366;7.480;2024-02-26T14:00:12;98355.97;;;10.70
86194;BMP180;76841;51.366;7.480;2024-02-26T14:02:38;98341.75;;;10.64
86194;BMP180;76841;51.366;7.480;2024-02-26T14:05:03;98361.88;;;10.78
86194;BMP180;76841;51.366;7.480;2024-02-26T14:07:29;98361.88;;;10.81
86194;BMP180;76841;51.366;7.480;2024-02-26T14:09:57;98370.88;;;10.80
86194;BMP180;76841;51.366;7.480;2024-02-26T14:12:22;98374.56;;;10.86
86194;BMP180;76841;51.366;7.480;2024-02-26T14:14:48;98373.16;;;10.78